Time;durP1;ratioP1;P1;durP2;ratioP2;P2;SDS_P1;SDS_P2;PMS_P1;PMS_P2;Temp;Humidity;BMP_temperature;BMP_pressure;BME280_temperature;BME280_humidity;BME280_pressure;Samples;Min_cycle;Max_cycle;Signal;HPM_P1;HPM_P2
2021/01/16 00:02:13;;;;;;;;;;;;;;;;;;5011164;28;19926;-68
2021/01/16 00:04:39;;;;;;;;;;;;;;;;;;5005083;28;20024;-68
2021/01/16 00:07:06;;;;;;;;;;;;;;;;;;5011382;28;20294;-68
2021/01/16 00:09:32;;;;;;;;;;;;;;;;;;5005988;28;19925;-67
2021/01/16 00:11:59;;;;;;;;;;;;;;;;;;5011335;28;19925;-68
2021/01/16 00:14:25;;;;;;;;;;;;;;;;;;5010970;28;20368;-68
2021/01/16 00:16:52;;;;;;;;;;;;;;;;;;5011095;28;20024;-68
2021/01/16 00:19:19;;;;;;;;;;;;;;;;;;5007690;28;20319;-69
2021/01/16 00:21:45;;;;;;;;;;;;;;;;;;5010505;28;19932;-68
2021/01/16 00:24:12;;;;;;;;;;;;;;;;;;5011396;28;19991;-68
2021/01/16 00:26:38;;;;;;;;;;;;;;;;;;5010518;28;19932;-68
2021/01/16 00:29:05;;;;;;;;;;;;;;;;;;5017720;23;19932;-68
2021/01/16 00:31:31;;;;;;;;;;;;;;;;;;4990104;28;19932;-68
2021/01/16 00:33:58;;;;;;;;;;;;;;;;;;4990303;28;19932;-68
2021/01/16 00:36:24;;;;;;;;;;;;;;;;;;4989001;28;19932;-68
2021/01/16 00:38:51;;;;;;;;;;;;;;;;;;4988951;28;19980;-68
2021/01/16 00:41:17;;;;;;;;;;;;;;;;;;4988780;28;20453;-68
2021/01/16 00:43:44;;;;;;;;;;;;;;;;;;4991588;28;19929;-67
2021/01/16 00:46:10;;;;;;;;;;;;;;;;;;4993574;28;19987;-67
2021/01/16 00:48:37;;;;;;;;;;;;;;;;;;4992451;28;19925;-67
2021/01/16 00:51:03;;;;;;;;;;;;;;;;;;4993994;28;19927;-68
2021/01/16 00:53:29;;;;;;;;;;;;;;;;;;4993376;28;19929;-69
2021/01/16 00:55:56;;;;;;;;;;;;;;;;;;4993711;28;19930;-67
2021/01/16 00:58:22;;;;;;;;;;;;;;;;;;4990805;28;19934;-69
2021/01/16 01:00:49;;;;;;;;;;;;;;;;;;4993051;28;19926;-68
2021/01/16 01:03:15;;;;;;;;;;;;;;;;;;4993746;28;20695;-68
2021/01/16 01:05:42;;;;;;;;;;;;;;;;;;4992336;28;19975;-68
2021/01/16 01:08:08;;;;;;;;;;;;;;;;;;4992305;28;20338;-68
2021/01/16 01:10:35;;;;;;;;;;;;;;;;;;4993279;28;19926;-68
2021/01/16 01:13:01;;;;;;;;;;;;;;;;;;4993041;28;20194;-68
2021/01/16 01:15:28;;;;;;;;;;;;;;;;;;4993776;28;19926;-68
2021/01/16 01:17:54;;;;;;;;;;;;;;;;;;4992881;28;19933;-68
2021/01/16 01:20:21;;;;;;;;;;;;;;;;;;4994685;28;19926;-68
2021/01/16 01:22:47;;;;;;;;;;;;;;;;;;4992864;28;19932;-68
2021/01/16 01:25:14;;;;;;;;;;;;;;;;;;4992837;28;19934;-68
2021/01/16 01:27:40;;;;;;;;;;;;;;;;;;4993233;28;20165;-68
2021/01/16 01:30:07;;;;;;;;;;;;;;;;;;4992355;28;19926;-68
2021/01/16 01:32:33;;;;;;;;;;;;;;;;;;4993552;28;19929;-68
2021/01/16 01:35:00;;;;;;;;;;;;;;;;;;4992270;28;19929;-68
2021/01/16 01:37:26;;;;;;;;;;;;;;;;;;4991766;28;20443;-69
2021/01/16 01:39:53;;;;;;;;;;;;;;;;;;4992807;28;19925;-68
2021/01/16 01:42:19;;;;;;;;;;;;;;;;;;4993370;28;20366;-68
2021/01/16 01:44:46;;;;;;;;;;;;;;;;;;4991719;28;19929;-68
2021/01/16 01:47:12;;;;;;;;;;;;;;;;;;4992649;28;19973;-68
2021/01/16 01:49:39;;;;;;;;;;;;;;;;;;4992289;28;20402;-68
2021/01/16 01:52:05;;;;;;;;;;;;;;;;;;4992727;28;19953;-68
2021/01/16 01:54:32;;;;;;;;;;;;;;;;;;4991979;28;19975;-68
2021/01/16 01:56:58;;;;;;;;;;;;;;;;;;4991925;28;19926;-68
2021/01/16 01:59:25;;;;;;;;;;;;;;;;;;4991172;28;19926;-68
2021/01/16 02:01:51;;;;;;;;;;;;;;;;;;4992971;28;19926;-67
2021/01/16 02:04:18;;;;;;;;;;;;;;;;;;4992058;28;19932;-67
2021/01/16 02:06:44;;;;;;;;;;;;;;;;;;4990760;28;19933;-67
2021/01/16 02:09:11;;;;;;;;;;;;;;;;;;4992043;28;20353;-68
2021/01/16 02:11:37;;;;;;;;;;;;;;;;;;4992448;28;19940;-67
2021/01/16 02:14:04;;;;;;;;;;;;;;;;;;4991791;28;20380;-68
2021/01/16 02:16:30;;;;;;;;;;;;;;;;;;4991274;28;19944;-68
2021/01/16 02:18:57;;;;;;;;;;;;;;;;;;4989842;28;19930;-68
2021/01/16 02:21:23;;;;;;;;;;;;;;;;;;4993514;28;19969;-68
2021/01/16 02:23:50;;;;;;;;;;;;;;;;;;4992275;28;20375;-68
2021/01/16 02:26:16;;;;;;;;;;;;;;;;;;4991151;28;20016;-68
2021/01/16 02:28:43;;;;;;;;;;;;;;;;;;4990983;28;20299;-68
2021/01/16 02:31:09;;;;;;;;;;;;;;;;;;4991607;28;19980;-69
2021/01/16 02:33:36;;;;;;;;;;;;;;;;;;4988423;28;19926;-68
2021/01/16 02:36:02;;;;;;;;;;;;;;;;;;4991451;28;19976;-68
2021/01/16 02:38:29;;;;;;;;;;;;;;;;;;4990265;28;19969;-68
2021/01/16 02:40:55;;;;;;;;;;;;;;;;;;4989724;28;19929;-68
2021/01/16 02:43:22;;;;;;;;;;;;;;;;;;4990912;28;19975;-68
2021/01/16 02:45:48;;;;;;;;;;;;;;;;;;4991898;28;19980;-68
2021/01/16 02:48:15;;;;;;;;;;;;;;;;;;4990220;28;20019;-68
2021/01/16 02:50:41;;;;;;;;;;;;;;;;;;4992204;28;20416;-68
2021/01/16 02:53:08;;;;;;;;;;;;;;;;;;4989359;28;19971;-68
2021/01/16 02:55:34;;;;;;;;;;;;;;;;;;4991933;28;20406;-68
2021/01/16 02:58:01;;;;;;;;;;;;;;;;;;4992051;28;19971;-68
2021/01/16 03:00:27;;;;;;;;;;;;;;;;;;4990665;28;20020;-68
2021/01/16 03:02:54;;;;;;;;;;;;;;;;;;4990918;28;19929;-68
2021/01/16 03:05:20;;;;;;;;;;;;;;;;;;4989662;28;19928;-68
2021/01/16 03:07:46;;;;;;;;;;;;;;;;;;4990310;28;19926;-68
2021/01/16 03:10:13;;;;;;;;;;;;;;;;;;4991301;28;19926;-68
2021/01/16 03:12:39;;;;;;;;;;;;;;;;;;4990909;28;19933;-68
2021/01/16 03:15:06;;;;;;;;;;;;;;;;;;4990775;28;19933;-68
2021/01/16 03:17:32;;;;;;;;;;;;;;;;;;4990397;28;19926;-68
2021/01/16 03:19:59;;;;;;;;;;;;;;;;;;4991151;28;19926;-68
2021/01/16 03:22:25;;;;;;;;;;;;;;;;;;4992035;28;19929;-68
2021/01/16 03:24:52;;;;;;;;;;;;;;;;;;4991334;28;20392;-68
2021/01/16 03:27:18;;;;;;;;;;;;;;;;;;4990507;28;19941;-68
2021/01/16 03:29:45;;;;;;;;;;;;;;;;;;4990863;28;19942;-70
2021/01/16 03:32:11;;;;;;;;;;;;;;;;;;4990539;28;19936;-67
2021/01/16 03:34:38;;;;;;;;;;;;;;;;;;4990916;28;20107;-67
2021/01/16 03:37:04;;;;;;;;;;;;;;;;;;4989292;28;19926;-67
2021/01/16 03:39:31;;;;;;;;;;;;;;;;;;4990811;28;19932;-68
2021/01/16 03:41:57;;;;;;;;;;;;;;;;;;4992221;28;19926;-67
2021/01/16 03:44:24;;;;;;;;;;;;;;;;;;4990681;28;19972;-68
2021/01/16 03:46:50;;;;;;;;;;;;;;;;;;4990214;28;19925;-67
2021/01/16 03:49:17;;;;;;;;;;;;;;;;;;4990732;28;19929;-67
2021/01/16 03:51:43;;;;;;;;;;;;;;;;;;4991590;28;19934;-68
2021/01/16 03:54:10;;;;;;;;;;;;;;;;;;4991190;28;19932;-67
2021/01/16 03:56:36;;;;;;;;;;;;;;;;;;4989077;28;19942;-67
2021/01/16 03:59:03;;;;;;;;;;;;;;;;;;4990502;28;19926;-67
2021/01/16 04:01:29;;;;;;;;;;;;;;;;;;4988827;28;20456;-67
2021/01/16 04:03:56;;;;;;;;;;;;;;;;;;4990641;28;19971;-67
2021/01/16 04:06:22;;;;;;;;;;;;;;;;;;4989855;28;20346;-68
2021/01/16 04:08:49;;;;;;;;;;;;;;;;;;4990408;28;19925;-68
2021/01/16 04:11:15;;;;;;;;;;;;;;;;;;4991590;28;20399;-68
2021/01/16 04:13:42;;;;;;;;;;;;;;;;;;4990518;28;19930;-67
2021/01/16 04:16:08;;;;;;;;;;;;;;;;;;4990684;28;19937;-68
2021/01/16 04:18:35;;;;;;;;;;;;;;;;;;4992353;28;20024;-67
2021/01/16 04:21:01;;;;;;;;;;;;;;;;;;4995001;28;20411;-67
2021/01/16 04:23:28;;;;;;;;;;;;;;;;;;4994033;28;20016;-68
2021/01/16 04:25:54;;;;;;;;;;;;;;;;;;4995107;28;20016;-67
2021/01/16 04:28:21;;;;;;;;;;;;;;;;;;4994394;28;19932;-67
2021/01/16 04:30:47;;;;;;;;;;;;;;;;;;4994851;28;19933;-67
2021/01/16 04:33:13;;;;;;;;;;;;;;;;;;4994810;28;19926;-69
2021/01/16 04:35:40;;;;;;;;;;;;;;;;;;4993096;28;19949;-68
2021/01/16 04:38:06;;;;;;;;;;;;;;;;;;4993705;28;19926;-67
2021/01/16 04:40:33;;;;;;;;;;;;;;;;;;4994603;28;20384;-67
2021/01/16 04:42:59;;;;;;;;;;;;;;;;;;4993979;28;19933;-67
2021/01/16 04:45:26;;;;;;;;;;;;;;;;;;4994063;28;19941;-67
2021/01/16 04:47:52;;;;;;;;;;;;;;;;;;4994390;28;19933;-67
2021/01/16 04:50:19;;;;;;;;;;;;;;;;;;4994893;28;19971;-68
2021/01/16 04:52:45;;;;;;;;;;;;;;;;;;4994051;28;19930;-67
2021/01/16 04:55:12;;;;;;;;;;;;;;;;;;4993793;28;20325;-67
2021/01/16 04:57:38;;;;;;;;;;;;;;;;;;4994741;28;19925;-68
2021/01/16 05:00:05;;;;;;;;;;;;;;;;;;4993785;28;19955;-67
2021/01/16 05:02:31;;;;;;;;;;;;;;;;;;4994688;28;19929;-67
2021/01/16 05:04:58;;;;;;;;;;;;;;;;;;4994798;28;19934;-67
2021/01/16 05:07:24;;;;;;;;;;;;;;;;;;4994829;28;19926;-68
2021/01/16 05:09:51;;;;;;;;;;;;;;;;;;4993559;28;19925;-67
2021/01/16 05:12:17;;;;;;;;;;;;;;;;;;4993468;28;19925;-67
2021/01/16 05:14:44;;;;;;;;;;;;;;;;;;4993051;28;20006;-68
2021/01/16 05:17:10;;;;;;;;;;;;;;;;;;4994263;28;19977;-68
2021/01/16 05:19:37;;;;;;;;;;;;;;;;;;4992539;28;19936;-68
2021/01/16 05:22:03;;;;;;;;;;;;;;;;;;4993837;28;20450;-69
2021/01/16 05:24:29;;;;;;;;;;;;;;;;;;4992788;28;19929;-69
2021/01/16 05:26:56;;;;;;;;;;;;;;;;;;4992913;28;19926;-69
2021/01/16 05:29:25;;;;;;;;;;;;;;;;;;4992645;28;19926;-69
2021/01/16 05:31:51;;;;;;;;;;;;;;;;;;4994349;28;19930;-69
2021/01/16 05:34:18;;;;;;;;;;;;;;;;;;4993584;28;19972;-69
2021/01/16 05:36:44;;;;;;;;;;;;;;;;;;4992232;28;19933;-69
2021/01/16 05:39:11;;;;;;;;;;;;;;;;;;4991391;28;20331;-69
2021/01/16 05:41:37;;;;;;;;;;;;;;;;;;4992377;28;20025;-72
2021/01/16 05:44:04;;;;;;;;;;;;;;;;;;4993634;28;20319;-69
2021/01/16 05:46:30;;;;;;;;;;;;;;;;;;4992357;28;19933;-69
2021/01/16 05:48:57;;;;;;;;;;;;;;;;;;4992492;28;20017;-69
2021/01/16 05:51:23;;;;;;;;;;;;;;;;;;4992897;28;19999;-69
2021/01/16 05:53:49;;;;;;;;;;;;;;;;;;4988772;28;20421;-67
2021/01/16 05:56:16;;;;;;;;;;;;;;;;;;4992925;28;19980;-68
2021/01/16 05:58:42;;;;;;;;;;;;;;;;;;4993386;28;20080;-68
2021/01/16 06:01:09;;;;;;;;;;;;;;;;;;4993643;28;19929;-68
2021/01/16 06:03:36;;;;;;;;;;;;;;;;;;4992809;28;20339;-69
2021/01/16 06:06:02;;;;;;;;;;;;;;;;;;4991853;28;20184;-68
2021/01/16 06:08:28;;;;;;;;;;;;;;;;;;4989566;28;19937;-69
2021/01/16 06:10:55;;;;;;;;;;;;;;;;;;4993212;28;19992;-69
2021/01/16 06:13:21;;;;;;;;;;;;;;;;;;4992284;28;20031;-69
2021/01/16 06:15:48;;;;;;;;;;;;;;;;;;4993320;28;19930;-69
2021/01/16 06:18:14;;;;;;;;;;;;;;;;;;4992728;28;19926;-68
2021/01/16 06:20:41;;;;;;;;;;;;;;;;;;4992144;28;19926;-68
2021/01/16 06:23:07;;;;;;;;;;;;;;;;;;4992091;28;19944;-68
2021/01/16 06:25:34;;;;;;;;;;;;;;;;;;4991667;28;20406;-69
2021/01/16 06:28:00;;;;;;;;;;;;;;;;;;4992105;28;19933;-68
2021/01/16 06:30:27;;;;;;;;;;;;;;;;;;4993500;23;19926;-68
2021/01/16 06:32:53;;;;;;;;;;;;;;;;;;4974823;28;19989;-70
2021/01/16 06:35:20;;;;;;;;;;;;;;;;;;4974667;28;19976;-70
2021/01/16 06:37:46;;;;;;;;;;;;;;;;;;4972918;28;19933;-70
2021/01/16 06:40:14;;;;;;;;;;;;;;;;;;4974034;28;19926;-70
2021/01/16 06:42:40;;;;;;;;;;;;;;;;;;4974147;28;19934;-70
2021/01/16 06:45:10;;;;;;;;;;;;;;;;;;4973407;28;19926;-70
2021/01/16 06:47:36;;;;;;;;;;;;;;;;;;4973736;28;19926;-70
2021/01/16 06:50:03;;;;;;;;;;;;;;;;;;4970809;28;19930;-70
2021/01/16 06:52:29;;;;;;;;;;;;;;;;;;4974058;28;20213;-69
2021/01/16 06:54:56;;;;;;;;;;;;;;;;;;4974252;28;19984;-70
2021/01/16 06:57:22;;;;;;;;;;;;;;;;;;4974041;28;20368;-71
2021/01/16 06:59:49;;;;;;;;;;;;;;;;;;4973443;28;19926;-70
2021/01/16 07:02:15;;;;;;;;;;;;;;;;;;4973725;28;19937;-70
2021/01/16 07:04:42;;;;;;;;;;;;;;;;;;4973695;28;19973;-70
2021/01/16 07:07:08;;;;;;;;;;;;;;;;;;4973720;28;20300;-70
2021/01/16 07:09:35;;;;;;;;;;;;;;;;;;4973561;28;19927;-70
2021/01/16 07:12:01;;;;;;;;;;;;;;;;;;4970277;28;19934;-70
2021/01/16 07:14:28;;;;;;;;;;;;;;;;;;4973961;28;19933;-70
2021/01/16 07:16:54;;;;;;;;;;;;;;;;;;4978894;28;20299;-70
2021/01/16 07:19:21;;;;;;;;;;;;;;;;;;4973157;28;20402;-70
2021/01/16 07:21:47;;;;;;;;;;;;;;;;;;4973573;28;20048;-71
2021/01/16 07:24:14;;;;;;;;;;;;;;;;;;4971421;28;19942;-70
2021/01/16 07:26:40;;;;;;;;;;;;;;;;;;4972771;28;19926;-70
2021/01/16 07:29:07;;;;;;;;;;;;;;;;;;4972515;28;20389;-70
2021/01/16 07:31:33;;;;;;;;;;;;;;;;;;4973611;28;19937;-70
2021/01/16 07:34:00;;;;;;;;;;;;;;;;;;4973009;28;19926;-70
2021/01/16 07:36:26;;;;;;;;;;;;;;;;;;4973501;28;19932;-70
2021/01/16 07:38:53;;;;;;;;;;;;;;;;;;4973505;28;19926;-69
2021/01/16 07:41:19;;;;;;;;;;;;;;;;;;4973508;28;20407;-70
2021/01/16 07:43:45;;;;;;;;;;;;;;;;;;4973009;28;19926;-70
2021/01/16 07:46:12;;;;;;;;;;;;;;;;;;4973621;28;19926;-70
2021/01/16 07:48:38;;;;;;;;;;;;;;;;;;4972767;28;19926;-70
2021/01/16 07:51:05;;;;;;;;;;;;;;;;;;4973410;28;19933;-70
2021/01/16 07:53:31;;;;;;;;;;;;;;;;;;4977384;28;19984;-70
2021/01/16 07:55:58;;;;;;;;;;;;;;;;;;4978180;28;19980;-70
2021/01/16 07:58:25;;;;;;;;;;;;;;;;;;4979370;28;19930;-70
2021/01/16 08:00:52;;;;;;;;;;;;;;;;;;4977764;28;19926;-70
2021/01/16 08:03:18;;;;;;;;;;;;;;;;;;4977773;28;19932;-70
2021/01/16 08:05:45;;;;;;;;;;;;;;;;;;4977070;28;20029;-70
2021/01/16 08:08:11;;;;;;;;;;;;;;;;;;4977579;28;20293;-70
2021/01/16 08:10:38;;;;;;;;;;;;;;;;;;4976097;28;20080;-69
2021/01/16 08:13:04;;;;;;;;;;;;;;;;;;4976799;28;20005;-69
2021/01/16 08:15:31;;;;;;;;;;;;;;;;;;4976640;28;19983;-69
2021/01/16 08:17:57;;;;;;;;;;;;;;;;;;4976084;28;19930;-69
2021/01/16 08:20:27;;;;;;;;;;;;;;;;;;4976555;28;20283;-69
2021/01/16 08:22:54;;;;;;;;;;;;;;;;;;4976870;28;19926;-69
2021/01/16 08:25:20;;;;;;;;;;;;;;;;;;4976604;28;19930;-69
2021/01/16 08:27:47;;;;;;;;;;;;;;;;;;4976804;28;19952;-68
2021/01/16 08:30:13;;;;;;;;;;;;;;;;;;4976232;28;20025;-68
2021/01/16 08:32:40;;;;;;;;;;;;;;;;;;4977325;28;19933;-69
2021/01/16 08:35:06;;;;;;;;;;;;;;;;;;4976053;28;19926;-69
2021/01/16 08:37:33;;;;;;;;;;;;;;;;;;4976881;28;19926;-69
2021/01/16 08:39:59;;;;;;;;;;;;;;;;;;4976547;28;19936;-69
2021/01/16 08:42:26;;;;;;;;;;;;;;;;;;4977480;28;19933;-69
2021/01/16 08:44:53;;;;;;;;;;;;;;;;;;4976257;28;19988;-70
2021/01/16 08:47:19;;;;;;;;;;;;;;;;;;4973803;28;19926;-69
2021/01/16 08:49:46;;;;;;;;;;;;;;;;;;4976590;28;20323;-69
2021/01/16 08:52:12;;;;;;;;;;;;;;;;;;4968239;28;19927;-69
2021/01/16 08:54:39;;;;;;;;;;;;;;;;;;4973862;28;19978;-69
2021/01/16 08:57:05;;;;;;;;;;;;;;;;;;4976384;28;19965;-70
2021/01/16 08:59:32;;;;;;;;;;;;;;;;;;4974576;28;20029;-69
2021/01/16 09:01:58;;;;;;;;;;;;;;;;;;4976049;28;19926;-69
2021/01/16 09:04:25;;;;;;;;;;;;;;;;;;4974455;28;20029;-70
2021/01/16 09:06:51;;;;;;;;;;;;;;;;;;4976060;28;20304;-69
2021/01/16 09:09:18;;;;;;;;;;;;;;;;;;4975687;28;19953;-69
2021/01/16 09:11:44;;;;;;;;;;;;;;;;;;4975237;28;19933;-70
2021/01/16 09:14:11;;;;;;;;;;;;;;;;;;4975540;28;19930;-69
2021/01/16 09:16:37;;;;;;;;;;;;;;;;;;4975299;28;19957;-69
2021/01/16 09:19:04;;;;;;;;;;;;;;;;;;4975033;28;19930;-70
2021/01/16 09:21:31;;;;;;;;;;;;;;;;;;4975115;28;19936;-70
2021/01/16 09:23:57;;;;;;;;;;;;;;;;;;4974760;28;19941;-70
2021/01/16 09:26:25;;;;;;;;;;;;;;;;;;4975299;28;19926;-69
2021/01/16 09:28:51;;;;;;;;;;;;;;;;;;4969938;28;20439;-69
2021/01/16 09:31:18;;;;;;;;;;;;;;;;;;4975255;28;19933;-69
2021/01/16 09:33:44;;;;;;;;;;;;;;;;;;4974978;28;20423;-70
2021/01/16 09:36:11;;;;;;;;;;;;;;;;;;4975737;28;19985;-69
2021/01/16 09:38:37;;;;;;;;;;;;;;;;;;4974702;28;19984;-70
2021/01/16 09:41:04;;;;;;;;;;;;;;;;;;4974683;28;19981;-69
2021/01/16 09:43:32;;;;;;;;;;;;;;;;;;4975148;28;20017;-69
2021/01/16 09:45:58;;;;;;;;;;;;;;;;;;4973660;28;19933;-70
2021/01/16 09:48:25;;;;;;;;;;;;;;;;;;4973677;28;20051;-69
2021/01/16 09:50:51;;;;;;;;;;;;;;;;;;4974484;28;19926;-70
2021/01/16 09:53:18;;;;;;;;;;;;;;;;;;4974567;28;19933;-69
2021/01/16 09:55:44;;;;;;;;;;;;;;;;;;4974663;28;19930;-68
2021/01/16 09:58:10;;;;;;;;;;;;;;;;;;4974705;28;19930;-73
2021/01/16 10:00:37;;;;;;;;;;;;;;;;;;4974844;28;19926;-69
2021/01/16 10:03:04;;;;;;;;;;;;;;;;;;4975063;28;19926;-68
2021/01/16 10:05:30;;;;;;;;;;;;;;;;;;4974844;28;19930;-70
2021/01/16 10:07:57;;;;;;;;;;;;;;;;;;4975133;28;19926;-68
2021/01/16 10:10:24;;;;;;;;;;;;;;;;;;4974544;28;20422;-68
2021/01/16 10:12:50;;;;;;;;;;;;;;;;;;4974964;28;19976;-68
2021/01/16 10:15:17;;;;;;;;;;;;;;;;;;4973929;28;19933;-69
2021/01/16 10:17:43;;;;;;;;;;;;;;;;;;4973646;28;20443;-70
2021/01/16 10:20:10;;;;;;;;;;;;;;;;;;4974390;28;19930;-69
2021/01/16 10:22:36;;;;;;;;;;;;;;;;;;4974738;28;20292;-70
2021/01/16 10:25:03;;;;;;;;;;;;;;;;;;4974472;28;19926;-70
2021/01/16 10:27:29;;;;;;;;;;;;;;;;;;4972873;28;20162;-71
2021/01/16 10:29:56;;;;;;;;;;;;;;;;;;4974798;28;20447;-70
2021/01/16 10:32:22;;;;;;;;;;;;;;;;;;4974369;28;19933;-71
2021/01/16 10:34:49;;;;;;;;;;;;;;;;;;4974843;28;19981;-70
2021/01/16 10:37:15;;;;;;;;;;;;;;;;;;4974594;28;19926;-70
2021/01/16 10:39:42;;;;;;;;;;;;;;;;;;4974637;28;19933;-71
2021/01/16 10:42:08;;;;;;;;;;;;;;;;;;4971547;28;19926;-71
2021/01/16 10:44:36;;;;;;;;;;;;;;;;;;4973685;28;19933;-70
2021/01/16 10:47:09;;;;;;;;;;;;;;;;;;5121433;27;19922;-70
2021/01/16 10:49:36;;;;;;;;;;;;;;;;;;5112811;28;20390;-70
2021/01/16 10:52:02;;;;;;;;;;;;;;;;;;5107828;28;19924;-70
2021/01/16 10:54:29;;;;;;;;;;;;;;;;;;5103019;28;19928;-70
2021/01/16 10:56:55;;;;;;;;;;;;;;;;;;5100641;28;19932;-70
2021/01/16 10:59:22;;;;;;;;;;;;;;;;;;5105074;28;19988;-70
2021/01/16 11:01:49;;;;;;;;;;;;;;;;;;5109985;28;19924;-70
2021/01/16 11:04:16;;;;;;;;;;;;;;;;;;5091329;28;20384;-70
2021/01/16 11:06:42;;;;;;;;;;;;;;;;;;5105646;28;20039;-70
2021/01/16 11:09:09;;;;;;;;;;;;;;;;;;5100350;28;20398;-70
2021/01/16 11:11:35;;;;;;;;;;;;;;;;;;5108547;28;19924;-70
2021/01/16 11:14:02;;;;;;;;;;;;;;;;;;5092938;28;19928;-70
2021/01/16 11:16:28;;;;;;;;;;;;;;;;;;5091958;28;19931;-70
2021/01/16 11:18:55;;;;;;;;;;;;;;;;;;5094124;28;20011;-71
2021/01/16 11:21:21;;;;;;;;;;;;;;;;;;5102359;28;20295;-71
2021/01/16 11:23:48;;;;;;;;;;;;;;;;;;5109996;28;19930;-71
2021/01/16 11:26:14;;;;;;;;;;;;;;;;;;5099373;28;19925;-70
2021/01/16 11:28:41;;;;;;;;;;;;;;;;;;5107732;28;19924;-70
2021/01/16 11:31:07;;;;;;;;;;;;;;;;;;5108968;28;19924;-71
2021/01/16 11:33:34;;;;;;;;;;;;;;;;;;5096467;28;20026;-71
2021/01/16 11:36:00;;;;;;;;;;;;;;;;;;5097841;28;20044;-70
2021/01/16 11:38:27;;;;;;;;;;;;;;;;;;5109192;28;19950;-71
2021/01/16 11:40:53;;;;;;;;;;;;;;;;;;5108044;28;19924;-71
2021/01/16 11:43:20;;;;;;;;;;;;;;;;;;5109020;28;19924;-70
2021/01/16 11:45:46;;;;;;;;;;;;;;;;;;5106962;28;19924;-70
2021/01/16 11:48:13;;;;;;;;;;;;;;;;;;5109081;28;19938;-70
2021/01/16 11:50:39;;;;;;;;;;;;;;;;;;5106898;28;19969;-71
2021/01/16 11:53:06;;;;;;;;;;;;;;;;;;5094251;28;19931;-71
2021/01/16 11:55:32;;;;;;;;;;;;;;;;;;5107133;28;19932;-70
2021/01/16 11:57:59;;;;;;;;;;;;;;;;;;5087440;28;20362;-71
2021/01/16 12:00:25;;;;;;;;;;;;;;;;;;5094640;28;19931;-71
2021/01/16 12:02:52;;;;;;;;;;;;;;;;;;5092442;28;19978;-71
2021/01/16 12:05:19;;;;;;;;;;;;;;;;;;5087498;28;19932;-70
2021/01/16 12:07:45;;;;;;;;;;;;;;;;;;5092732;28;20404;-70
2021/01/16 12:10:12;;;;;;;;;;;;;;;;;;5089361;28;19942;-71
2021/01/16 12:12:39;;;;;;;;;;;;;;;;;;5094439;28;19924;-70
2021/01/16 12:15:05;;;;;;;;;;;;;;;;;;5093981;28;19976;-74
2021/01/16 12:17:32;;;;;;;;;;;;;;;;;;5090328;28;19924;-70
2021/01/16 12:19:58;;;;;;;;;;;;;;;;;;5094616;28;20303;-71
2021/01/16 12:22:25;;;;;;;;;;;;;;;;;;5090641;28;20010;-71
2021/01/16 12:24:51;;;;;;;;;;;;;;;;;;5086167;28;19985;-70
2021/01/16 12:27:18;;;;;;;;;;;;;;;;;;5077494;28;20269;-71
2021/01/16 12:29:46;;;;;;;;;;;;;;;;;;5092869;22;20379;-70
2021/01/16 12:32:12;;;;;;;;;;;;;;;;;;5054958;28;19929;-67
2021/01/16 12:34:39;;;;;;;;;;;;;;;;;;5055437;28;19925;-68
2021/01/16 12:37:05;;;;;;;;;;;;;;;;;;5055880;28;19928;-68
2021/01/16 12:39:32;;;;;;;;;;;;;;;;;;5055505;28;19924;-69
2021/01/16 12:41:58;;;;;;;;;;;;;;;;;;5055194;28;19928;-69
2021/01/16 12:44:25;;;;;;;;;;;;;;;;;;5039287;28;19936;-68
2021/01/16 12:46:51;;;;;;;;;;;;;;;;;;5044195;28;19971;-68
2021/01/16 12:49:19;;;;;;;;;;;;;;;;;;5054538;28;19932;-68
2021/01/16 12:51:45;;;;;;;;;;;;;;;;;;5048386;28;19929;-69
2021/01/16 12:54:12;;;;;;;;;;;;;;;;;;5054286;28;20015;-68
2021/01/16 12:56:39;;;;;;;;;;;;;;;;;;5055410;28;19932;-68
2021/01/16 12:59:06;;;;;;;;;;;;;;;;;;5050081;28;19925;-68
2021/01/16 13:01:32;;;;;;;;;;;;;;;;;;5055464;28;20469;-69
2021/01/16 13:04:00;;;;;;;;;;;;;;;;;;5054667;28;19925;-68
2021/01/16 13:06:26;;;;;;;;;;;;;;;;;;5053472;28;20014;-70
2021/01/16 13:08:53;;;;;;;;;;;;;;;;;;5052670;28;19925;-69
2021/01/16 13:11:19;;;;;;;;;;;;;;;;;;5053549;28;19990;-68
2021/01/16 13:13:46;;;;;;;;;;;;;;;;;;5052601;28;19950;-68
2021/01/16 13:16:12;;;;;;;;;;;;;;;;;;5053370;28;19932;-68
2021/01/16 13:18:40;;;;;;;;;;;;;;;;;;5053952;28;19931;-68
2021/01/16 13:21:07;;;;;;;;;;;;;;;;;;5049173;28;20296;-68
2021/01/16 13:23:34;;;;;;;;;;;;;;;;;;5048118;28;19968;-68
2021/01/16 13:26:00;;;;;;;;;;;;;;;;;;5049298;28;19986;-69
2021/01/16 13:28:27;;;;;;;;;;;;;;;;;;5051030;28;19925;-69
2021/01/16 13:30:53;;;;;;;;;;;;;;;;;;5039981;28;19931;-68
2021/01/16 13:33:20;;;;;;;;;;;;;;;;;;5052039;28;19971;-69
2021/01/16 13:35:46;;;;;;;;;;;;;;;;;;5051225;28;20395;-68
2021/01/16 13:38:13;;;;;;;;;;;;;;;;;;5048490;28;19924;-68
2021/01/16 13:40:39;;;;;;;;;;;;;;;;;;5040435;28;19979;-68
2021/01/16 13:43:06;;;;;;;;;;;;;;;;;;5049554;28;19980;-69
2021/01/16 13:45:33;;;;;;;;;;;;;;;;;;5046429;28;19978;-69
2021/01/16 13:48:00;;;;;;;;;;;;;;;;;;5043467;28;20352;-67
2021/01/16 13:50:27;;;;;;;;;;;;;;;;;;5050996;28;19925;-68
2021/01/16 13:52:53;;;;;;;;;;;;;;;;;;5051749;28;19925;-68
2021/01/16 13:55:20;;;;;;;;;;;;;;;;;;5046551;28;20032;-69
2021/01/16 13:57:46;;;;;;;;;;;;;;;;;;5050586;28;19987;-69
2021/01/16 14:00:13;;;;;;;;;;;;;;;;;;5050009;28;19931;-69
2021/01/16 14:02:39;;;;;;;;;;;;;;;;;;5050755;28;19934;-69
2021/01/16 14:05:06;;;;;;;;;;;;;;;;;;5049331;28;20164;-68
2021/01/16 14:07:32;;;;;;;;;;;;;;;;;;5048268;28;20045;-69
2021/01/16 14:10:00;;;;;;;;;;;;;;;;;;5047944;28;19968;-69
2021/01/16 14:12:26;;;;;;;;;;;;;;;;;;5050178;28;19929;-69
2021/01/16 14:14:54;;;;;;;;;;;;;;;;;;5047847;28;19929;-69
2021/01/16 14:17:21;;;;;;;;;;;;;;;;;;5044954;28;19932;-69
2021/01/16 14:19:48;;;;;;;;;;;;;;;;;;5046503;28;19925;-70
2021/01/16 14:22:14;;;;;;;;;;;;;;;;;;5043624;28;20011;-70
2021/01/16 14:24:41;;;;;;;;;;;;;;;;;;5050142;28;20027;-70
2021/01/16 14:27:08;;;;;;;;;;;;;;;;;;5043039;28;20023;-70
2021/01/16 14:29:34;;;;;;;;;;;;;;;;;;5050670;28;20234;-70
2021/01/16 14:32:01;;;;;;;;;;;;;;;;;;5046799;28;20365;-69
2021/01/16 14:34:27;;;;;;;;;;;;;;;;;;5042636;28;19968;-69
2021/01/16 14:36:56;;;;;;;;;;;;;;;;;;5042417;28;19925;-69
2021/01/16 14:39:22;;;;;;;;;;;;;;;;;;5048622;28;20384;-69
2021/01/16 14:41:49;;;;;;;;;;;;;;;;;;5044413;28;19924;-69
2021/01/16 14:44:16;;;;;;;;;;;;;;;;;;5049622;28;19971;-69
2021/01/16 14:46:42;;;;;;;;;;;;;;;;;;5044074;28;19931;-69
2021/01/16 14:49:09;;;;;;;;;;;;;;;;;;5051258;28;19925;-69
2021/01/16 14:51:36;;;;;;;;;;;;;;;;;;5044074;28;19931;-68
2021/01/16 14:54:02;;;;;;;;;;;;;;;;;;5051129;28;19978;-69
2021/01/16 14:56:29;;;;;;;;;;;;;;;;;;5043932;28;19924;-69
2021/01/16 14:58:55;;;;;;;;;;;;;;;;;;5051769;28;19928;-68
2021/01/16 15:01:22;;;;;;;;;;;;;;;;;;5050001;28;19924;-69
2021/01/16 15:03:49;;;;;;;;;;;;;;;;;;5049039;28;19925;-68
2021/01/16 15:06:15;;;;;;;;;;;;;;;;;;5048254;28;19929;-68
2021/01/16 15:08:42;;;;;;;;;;;;;;;;;;5037684;28;20129;-68
2021/01/16 15:11:08;;;;;;;;;;;;;;;;;;5036995;28;19925;-69
2021/01/16 15:13:35;;;;;;;;;;;;;;;;;;5045534;28;19971;-67
2021/01/16 15:16:01;;;;;;;;;;;;;;;;;;5050754;28;19972;-68
2021/01/16 15:18:29;;;;;;;;;;;;;;;;;;5049989;28;19951;-69
2021/01/16 15:20:56;;;;;;;;;;;;;;;;;;5050745;28;19929;-68
2021/01/16 15:23:22;;;;;;;;;;;;;;;;;;5041845;28;19926;-68
2021/01/16 15:25:49;;;;;;;;;;;;;;;;;;5047118;28;19979;-69
2021/01/16 15:28:17;;;;;;;;;;;;;;;;;;5050520;28;20051;-69
2021/01/16 15:30:43;;;;;;;;;;;;;;;;;;5049977;28;19925;-69
2021/01/16 15:33:10;;;;;;;;;;;;;;;;;;5052619;28;19925;-69
2021/01/16 15:35:36;;;;;;;;;;;;;;;;;;5055305;28;20019;-69
2021/01/16 15:38:03;;;;;;;;;;;;;;;;;;5047878;28;20304;-69
2021/01/16 15:40:29;;;;;;;;;;;;;;;;;;5054927;28;20423;-68
2021/01/16 15:42:56;;;;;;;;;;;;;;;;;;5040774;28;20435;-67
2021/01/16 15:45:22;;;;;;;;;;;;;;;;;;5053667;28;19931;-68
2021/01/16 15:47:49;;;;;;;;;;;;;;;;;;5048028;28;20292;-68
2021/01/16 15:50:15;;;;;;;;;;;;;;;;;;5054920;28;20262;-68
2021/01/16 15:52:42;;;;;;;;;;;;;;;;;;5048164;28;19925;-70
2021/01/16 15:55:08;;;;;;;;;;;;;;;;;;5040438;28;20015;-69
2021/01/16 15:57:35;;;;;;;;;;;;;;;;;;5047737;28;20040;-69
2021/01/16 16:00:02;;;;;;;;;;;;;;;;;;5049615;28;20007;-69
2021/01/16 16:02:29;;;;;;;;;;;;;;;;;;5054207;28;19951;-69
2021/01/16 16:04:55;;;;;;;;;;;;;;;;;;5052603;28;19931;-69
2021/01/16 16:07:22;;;;;;;;;;;;;;;;;;5046590;28;19925;-69
2021/01/16 16:09:48;;;;;;;;;;;;;;;;;;5054333;28;19978;-69
2021/01/16 16:12:15;;;;;;;;;;;;;;;;;;5055278;28;20031;-67
2021/01/16 16:14:41;;;;;;;;;;;;;;;;;;5054933;28;19925;-67
2021/01/16 16:17:08;;;;;;;;;;;;;;;;;;5052190;28;20404;-69
2021/01/16 16:19:34;;;;;;;;;;;;;;;;;;5049211;28;19924;-69
2021/01/16 16:22:01;;;;;;;;;;;;;;;;;;5055151;28;19972;-69
2021/01/16 16:24:27;;;;;;;;;;;;;;;;;;5047520;28;19925;-69
2021/01/16 16:26:54;;;;;;;;;;;;;;;;;;5047606;28;19932;-69
2021/01/16 16:29:20;;;;;;;;;;;;;;;;;;5053796;28;19985;-66
2021/01/16 16:31:47;;;;;;;;;;;;;;;;;;5054785;28;19933;-67
2021/01/16 16:34:13;;;;;;;;;;;;;;;;;;5054668;28;20049;-68
2021/01/16 16:36:40;;;;;;;;;;;;;;;;;;5053920;28;19925;-68
2021/01/16 16:39:06;;;;;;;;;;;;;;;;;;5054272;28;19925;-69
2021/01/16 16:41:33;;;;;;;;;;;;;;;;;;5049591;28;20023;-70